Pittsford, New York
Current Conditions -  °F | °C
As of 12:54 PM on Friday 21 Nov 2014 (Local Time) from KROC Reporting Station
Broken Clouds Broken Clouds  
Wind Chill: 18°   Ceiling: 4000
Heat Index: 29°   Visibility: 10mi
Dew Point: 14°   Wind: 14mph
Humidity: 54%   Direction: 270°W
Pressure: 30.37"   Gusts: NA
Location:  43.09°N, 77.51°W
Report Text: KROC 211754Z 27012KT 10SM SCT028 BKN040 M02/M10 A3037 RMK AO2 SLP295 4/002 933005 60000 T10171100 11017 21067 51012
Loading
Personal Weather Stations






























Interactive Weather Map New forecast layout! Learn more

10-Day Weather Forecast

Advertisements
Track Severe Weather on mobile